createdAt,value
2018-12-21T00:00:56.041Z,5.47
2018-12-21T00:03:24.250Z,4.97
2018-12-21T00:05:52.376Z,5.30
2018-12-21T00:08:20.591Z,5.73
2018-12-21T00:10:48.725Z,5.57
2018-12-21T00:13:16.861Z,5.97
2018-12-21T00:15:45.000Z,5.30
2018-12-21T00:18:13.082Z,4.70
2018-12-21T00:20:41.284Z,5.20
2018-12-21T00:23:09.434Z,4.93
2018-12-21T00:25:37.561Z,4.80
2018-12-21T00:28:05.640Z,5.73
2018-12-21T00:30:33.310Z,4.80
2018-12-21T00:33:07.041Z,5.40
2018-12-21T00:35:40.902Z,4.53
2018-12-21T00:38:14.493Z,5.13
2018-12-21T00:40:47.999Z,5.30
2018-12-21T00:43:52.882Z,4.90
2018-12-21T00:46:28.480Z,5.57
2018-12-21T00:48:56.621Z,5.07
2018-12-21T00:51:30.191Z,5.78
2018-12-21T00:53:55.047Z,5.33
2018-12-21T00:56:23.133Z,5.47
2018-12-21T00:58:51.335Z,4.63
2018-12-21T01:01:19.983Z,5.13
2018-12-21T01:03:48.142Z,5.80
2018-12-21T01:06:16.489Z,4.70
2018-12-21T01:08:44.817Z,4.63
2018-12-21T01:11:12.984Z,5.55
2018-12-21T01:13:41.105Z,4.53
2018-12-21T01:16:09.370Z,5.30
2018-12-21T01:18:37.535Z,4.47
2018-12-21T01:21:06.921Z,4.57
2018-12-21T01:23:35.211Z,4.90
2018-12-21T01:26:03.356Z,4.33
2018-12-21T01:28:31.530Z,3.90
2018-12-21T01:30:59.606Z,3.67
2018-12-21T01:33:27.657Z,4.17
2018-12-21T01:35:55.812Z,4.37
2018-12-21T01:38:23.986Z,3.63
2018-12-21T01:40:52.073Z,3.77
2018-12-21T01:43:20.682Z,4.27
2018-12-21T01:45:48.926Z,4.23
2018-12-21T01:48:17.072Z,4.33
2018-12-21T01:50:45.382Z,3.83
2018-12-21T01:53:13.593Z,4.60
2018-12-21T01:55:41.953Z,4.00
2018-12-21T01:58:10.019Z,4.07
2018-12-21T02:00:38.272Z,4.17
2018-12-21T02:03:06.794Z,3.40
2018-12-21T02:05:34.989Z,3.53
2018-12-21T02:08:03.148Z,3.63
2018-12-21T02:10:31.249Z,4.17
2018-12-21T02:12:59.449Z,3.53
2018-12-21T02:15:27.589Z,3.60
2018-12-21T02:17:55.707Z,4.00
2018-12-21T02:20:24.349Z,3.30
2018-12-21T02:22:52.499Z,3.80
2018-12-21T02:25:20.655Z,3.37
2018-12-21T02:27:49.067Z,3.43
2018-12-21T02:30:17.205Z,3.40
2018-12-21T02:32:45.346Z,2.93
2018-12-21T02:35:13.474Z,3.10
2018-12-21T02:37:41.625Z,3.97
2018-12-21T02:40:09.805Z,3.07
2018-12-21T02:42:38.014Z,3.17
2018-12-21T02:45:06.837Z,2.63
2018-12-21T02:47:34.960Z,3.20
2018-12-21T02:50:03.539Z,2.90
2018-12-21T02:52:31.689Z,3.33
2018-12-21T02:54:59.811Z,2.90
2018-12-21T02:57:28.175Z,3.13
2018-12-21T02:59:56.334Z,3.13
2018-12-21T03:02:24.495Z,2.60
2018-12-21T03:04:53.105Z,2.90
2018-12-21T03:07:21.331Z,3.17
2018-12-21T03:09:49.495Z,2.80
2018-12-21T03:12:17.834Z,2.83
2018-12-21T03:14:45.966Z,2.83
2018-12-21T03:17:14.091Z,3.10
2018-12-21T03:19:42.186Z,3.17
2018-12-21T03:22:14.552Z,2.67
2018-12-21T03:24:40.461Z,2.83
2018-12-21T03:27:08.717Z,3.17
2018-12-21T03:29:36.774Z,2.87
2018-12-21T03:32:05.231Z,3.47
2018-12-21T03:34:33.417Z,2.60
2018-12-21T03:37:01.667Z,2.97
2018-12-21T03:39:29.979Z,2.73
2018-12-21T03:41:58.380Z,3.40
2018-12-21T03:44:26.482Z,2.90
2018-12-21T03:46:54.981Z,2.83
2018-12-21T03:49:23.106Z,3.00
2018-12-21T03:51:51.246Z,3.50
2018-12-21T03:54:19.735Z,3.17
2018-12-21T03:56:47.946Z,3.87
2018-12-21T03:59:16.174Z,3.33
2018-12-21T04:01:44.559Z,3.60
2018-12-21T04:04:12.716Z,3.40
2018-12-21T04:06:41.913Z,2.97
2018-12-21T04:09:10.164Z,2.93
2018-12-21T04:11:38.345Z,3.03
2018-12-21T04:14:06.513Z,3.03
2018-12-21T04:16:34.916Z,3.40
2018-12-21T04:19:03.177Z,2.80
2018-12-21T04:21:31.733Z,4.17
2018-12-21T04:23:59.936Z,3.33
2018-12-21T04:26:28.061Z,3.67
2018-12-21T04:28:56.208Z,3.50
2018-12-21T04:31:24.274Z,3.80
2018-12-21T04:33:54.018Z,4.03
2018-12-21T04:36:22.174Z,3.57
2018-12-21T04:38:50.322Z,4.27
2018-12-21T04:41:18.802Z,3.73
2018-12-21T04:43:46.933Z,3.57
2018-12-21T04:46:15.265Z,3.43
2018-12-21T04:48:43.672Z,3.30
2018-12-21T04:51:11.851Z,3.77
2018-12-21T04:53:40.081Z,3.97
2018-12-21T04:56:08.250Z,3.47
2018-12-21T04:58:36.508Z,3.17
2018-12-21T05:01:04.742Z,3.90
2018-12-21T05:03:33.300Z,3.57
2018-12-21T05:06:01.414Z,4.00
2018-12-21T05:08:29.785Z,4.00
2018-12-21T05:10:57.959Z,3.40
2018-12-21T05:13:26.086Z,4.33
2018-12-21T05:15:54.233Z,3.63
2018-12-21T05:18:22.385Z,3.73
2018-12-21T05:20:50.481Z,4.23
2018-12-21T05:23:18.631Z,3.50
2018-12-21T05:25:46.961Z,4.57
2018-12-21T05:28:15.069Z,4.60
2018-12-21T05:30:43.200Z,3.67
2018-12-21T05:33:11.311Z,4.33
2018-12-21T05:35:39.449Z,4.20
2018-12-21T05:38:07.574Z,4.10
2018-12-21T05:40:36.204Z,4.47
2018-12-21T05:43:04.269Z,4.00
2018-12-21T05:45:32.396Z,3.53
2018-12-21T05:48:00.585Z,4.17
2018-12-21T05:50:28.736Z,4.10
2018-12-21T05:53:00.785Z,3.83
2018-12-21T05:55:27.151Z,3.93
2018-12-21T05:57:55.278Z,3.77
2018-12-21T06:00:23.446Z,5.00
2018-12-21T06:02:52.161Z,3.60
2018-12-21T06:05:20.287Z,3.77
2018-12-21T06:07:48.646Z,3.67
2018-12-21T06:10:17.086Z,3.80
2018-12-21T06:12:45.205Z,3.73
2018-12-21T06:15:13.541Z,3.80
2018-12-21T06:17:41.633Z,4.13
2018-12-21T06:20:09.784Z,4.47
2018-12-21T06:22:37.957Z,4.03
2018-12-21T06:25:07.007Z,4.07
2018-12-21T06:27:35.122Z,4.20
2018-12-21T06:30:04.494Z,3.73
2018-12-21T06:32:33.537Z,4.47
2018-12-21T06:35:01.702Z,3.67
2018-12-21T06:37:29.948Z,4.13
2018-12-21T06:39:58.608Z,4.17
2018-12-21T06:42:26.771Z,3.70
2018-12-21T06:44:54.897Z,3.60
2018-12-21T06:47:23.225Z,4.23
2018-12-21T06:49:51.358Z,4.40
2018-12-21T06:52:19.529Z,3.87
2018-12-21T06:54:47.721Z,4.40
2018-12-21T06:57:15.867Z,3.83
2018-12-21T06:59:43.996Z,4.23
2018-12-21T07:02:12.149Z,4.57
2018-12-21T07:04:40.338Z,4.03
2018-12-21T07:07:08.675Z,3.97
2018-12-21T07:09:37.064Z,4.83
2018-12-21T07:12:05.652Z,4.70
2018-12-21T07:14:33.839Z,3.47
2018-12-21T07:17:02.075Z,3.63
2018-12-21T07:19:30.237Z,3.77
2018-12-21T07:21:59.330Z,5.33
2018-12-21T07:24:28.232Z,3.47
2018-12-21T07:26:56.316Z,3.20
2018-12-21T07:29:24.593Z,2.83
2018-12-21T07:31:52.861Z,4.07
2018-12-21T07:34:21.009Z,3.03
2018-12-21T07:36:49.322Z,4.20
2018-12-21T07:39:17.854Z,3.90
2018-12-21T07:41:46.022Z,4.07
2018-12-21T07:44:14.166Z,4.30
2018-12-21T07:46:43.007Z,3.87
2018-12-21T07:49:11.135Z,3.67
2018-12-21T07:51:39.771Z,4.53
2018-12-21T07:54:08.252Z,3.30
2018-12-21T07:56:36.406Z,3.53
2018-12-21T07:59:04.569Z,4.30
2018-12-21T08:01:33.065Z,3.37
2018-12-21T08:04:01.471Z,3.93
2018-12-21T08:06:29.751Z,3.80
2018-12-21T08:08:57.889Z,3.60
2018-12-21T08:11:26.233Z,4.23
2018-12-21T08:13:55.404Z,2.63
2018-12-21T08:16:23.536Z,4.93
2018-12-21T08:18:51.750Z,5.00
2018-12-21T08:21:20.026Z,3.30
2018-12-21T08:23:48.670Z,3.20
2018-12-21T08:26:16.746Z,2.87
2018-12-21T08:28:45.015Z,3.13
2018-12-21T08:31:13.197Z,2.40
2018-12-21T08:33:41.365Z,2.67
2018-12-21T08:36:09.542Z,3.37
2018-12-21T08:38:38.020Z,2.97
2018-12-21T08:41:06.301Z,2.93
2018-12-21T08:43:34.376Z,3.87
2018-12-21T08:46:03.063Z,2.67
2018-12-21T08:48:31.128Z,2.33
2018-12-21T08:50:59.381Z,2.93
2018-12-21T08:53:27.532Z,2.60
2018-12-21T08:55:55.687Z,2.10
2018-12-21T08:58:23.813Z,2.73
2018-12-21T09:00:52.113Z,2.93
2018-12-21T09:03:20.273Z,2.00
2018-12-21T09:05:48.957Z,2.07
2018-12-21T09:08:17.109Z,2.13
2018-12-21T09:10:45.229Z,2.30
2018-12-21T09:13:13.374Z,2.10
2018-12-21T09:15:41.884Z,2.27
2018-12-21T09:18:10.226Z,2.10
2018-12-21T09:20:38.480Z,2.10
2018-12-21T09:23:07.121Z,1.83
2018-12-21T09:25:35.253Z,1.57
2018-12-21T09:28:03.549Z,2.10
2018-12-21T09:30:31.817Z,1.53
2018-12-21T09:32:59.978Z,2.00
2018-12-21T09:35:28.177Z,1.80
2018-12-21T09:37:56.704Z,1.80
2018-12-21T09:40:24.890Z,2.17
2018-12-21T09:42:53.487Z,1.93
2018-12-21T09:45:22.280Z,1.43
2018-12-21T09:47:50.477Z,1.83
2018-12-21T09:50:18.601Z,1.47
2018-12-21T09:52:46.773Z,2.50
2018-12-21T09:55:14.980Z,1.50
2018-12-21T09:57:43.309Z,1.43
2018-12-21T10:00:12.285Z,2.40
2018-12-21T10:02:41.104Z,1.50
2018-12-21T10:05:14.569Z,1.67
2018-12-21T10:07:42.833Z,1.67
2018-12-21T10:10:10.957Z,1.50
2018-12-21T10:12:39.126Z,1.67
2018-12-21T10:15:08.813Z,1.10
2018-12-21T10:17:37.244Z,1.70
2018-12-21T10:20:07.780Z,1.87
2018-12-21T10:22:35.917Z,1.90
2018-12-21T10:25:04.631Z,1.40
2018-12-21T10:27:32.789Z,1.63
2018-12-21T10:30:00.949Z,1.40
2018-12-21T10:32:29.141Z,1.77
2018-12-21T10:34:57.426Z,2.47
2018-12-21T10:37:25.550Z,1.47
2018-12-21T10:39:53.682Z,1.27
2018-12-21T10:42:21.917Z,1.10
2018-12-21T10:44:50.070Z,1.53
2018-12-21T10:47:18.405Z,1.07
2018-12-21T10:49:46.677Z,1.40
2018-12-21T10:52:14.754Z,1.67
2018-12-21T10:54:42.869Z,1.30
2018-12-21T10:57:10.995Z,1.70
2018-12-21T10:59:43.363Z,1.63
2018-12-21T11:02:09.422Z,1.43
2018-12-21T11:04:37.932Z,1.27
2018-12-21T11:07:06.040Z,2.07
2018-12-21T11:09:34.307Z,1.40
2018-12-21T11:12:02.430Z,1.47
2018-12-21T11:14:30.678Z,1.77
2018-12-21T11:16:58.936Z,1.40
2018-12-21T11:19:27.403Z,1.83
2018-12-21T11:21:55.509Z,1.67
2018-12-21T11:24:23.969Z,1.97
2018-12-21T11:26:52.150Z,1.50
2018-12-21T11:29:20.242Z,1.90
2018-12-21T11:31:48.585Z,1.40
2018-12-21T11:34:16.707Z,1.37
2018-12-21T11:36:44.778Z,0.57
2018-12-21T11:39:12.951Z,1.70
2018-12-21T11:41:41.086Z,1.30
2018-12-21T11:44:09.357Z,1.00
2018-12-21T11:46:37.474Z,1.60
2018-12-21T11:49:05.594Z,1.07
2018-12-21T11:51:33.693Z,1.80
2018-12-21T11:54:01.911Z,1.30
2018-12-21T11:56:30.029Z,1.60
2018-12-21T11:58:58.189Z,0.70
2018-12-21T12:01:26.337Z,1.23
2018-12-21T12:03:54.441Z,1.40
2018-12-21T12:06:22.578Z,3.90
2018-12-21T12:08:50.716Z,1.80
2018-12-21T12:11:18.862Z,2.30
2018-12-21T12:13:46.981Z,1.77
2018-12-21T12:16:15.222Z,1.20
2018-12-21T12:18:50.390Z,1.33
2018-12-21T12:21:18.766Z,1.27
2018-12-21T12:23:46.934Z,1.67
2018-12-21T12:26:15.168Z,1.13
2018-12-21T12:28:43.444Z,1.03
2018-12-21T12:31:11.592Z,1.70
2018-12-21T12:33:39.777Z,1.27
2018-12-21T12:36:07.992Z,1.00
2018-12-21T12:38:36.135Z,1.33
2018-12-21T12:41:06.749Z,1.60
2018-12-21T12:43:34.953Z,2.03
2018-12-21T12:46:03.127Z,1.37
2018-12-21T12:48:31.323Z,1.90
2018-12-21T12:50:59.570Z,1.73
2018-12-21T12:53:27.741Z,1.40
2018-12-21T12:55:55.802Z,1.07
2018-12-21T12:58:23.962Z,1.50
2018-12-21T13:00:52.071Z,1.90
2018-12-21T13:03:20.430Z,1.30
2018-12-21T13:05:48.580Z,1.87
2018-12-21T13:08:16.715Z,1.60
2018-12-21T13:10:44.845Z,1.50
2018-12-21T13:13:13.233Z,1.70
2018-12-21T13:15:41.367Z,1.90
2018-12-21T13:18:09.776Z,1.47
2018-12-21T13:20:38.489Z,1.60
2018-12-21T13:23:06.841Z,1.80
2018-12-21T13:25:34.978Z,1.47
2018-12-21T13:28:03.379Z,1.50
2018-12-21T13:30:31.518Z,1.27
2018-12-21T13:32:59.610Z,1.60
2018-12-21T13:35:27.811Z,1.10
2018-12-21T13:37:55.936Z,1.30
2018-12-21T13:40:24.208Z,1.40
2018-12-21T13:42:52.403Z,1.30
2018-12-21T13:45:20.527Z,1.63
2018-12-21T13:47:48.899Z,1.33
2018-12-21T13:50:17.217Z,1.00
2018-12-21T13:52:45.357Z,1.33
2018-12-21T13:55:20.264Z,1.73
2018-12-21T13:57:44.052Z,1.63
2018-12-21T14:00:12.210Z,1.53
2018-12-21T14:02:40.361Z,1.80
2018-12-21T14:05:08.577Z,1.00
2018-12-21T14:07:36.797Z,1.80
2018-12-21T14:10:08.378Z,1.47
2018-12-21T14:12:36.446Z,1.90
2018-12-21T14:15:05.297Z,2.00
2018-12-21T14:17:33.809Z,2.57
2018-12-21T14:20:01.951Z,1.97
2018-12-21T14:22:30.177Z,1.70
2018-12-21T14:24:58.609Z,1.30
2018-12-21T14:27:26.710Z,1.33
2018-12-21T14:29:55.597Z,1.37
2018-12-21T14:32:23.898Z,2.30
2018-12-21T14:34:52.007Z,1.10
2018-12-21T14:37:20.488Z,1.27
2018-12-21T14:39:48.647Z,1.53
2018-12-21T14:42:16.788Z,2.30
2018-12-21T14:44:44.945Z,1.33
2018-12-21T14:47:13.118Z,0.67
2018-12-21T14:49:41.313Z,2.43
2018-12-21T14:52:10.172Z,1.57
2018-12-21T14:54:38.506Z,0.80
2018-12-21T14:57:06.980Z,2.83
2018-12-21T14:59:35.647Z,2.20
2018-12-21T15:02:04.345Z,2.60
2018-12-21T15:04:32.486Z,2.20
2018-12-21T15:07:00.651Z,2.70
2018-12-21T15:09:29.427Z,2.53
2018-12-21T15:11:57.573Z,1.97
2018-12-21T15:14:25.731Z,2.70
2018-12-21T15:16:53.923Z,2.07
2018-12-21T15:19:22.229Z,2.33
2018-12-21T15:21:50.351Z,2.53
2018-12-21T15:24:18.545Z,2.57
2018-12-21T15:26:46.922Z,3.03
2018-12-21T15:29:15.121Z,2.17
2018-12-21T15:31:43.273Z,3.00
2018-12-21T15:34:12.125Z,2.93
2018-12-21T15:36:41.034Z,2.37
2018-12-21T15:39:09.465Z,2.22
2018-12-21T15:41:37.576Z,2.73
2018-12-21T15:44:06.749Z,3.63
2018-12-21T15:46:35.048Z,2.50
2018-12-21T15:49:03.249Z,2.20
2018-12-21T15:51:31.873Z,3.30
2018-12-21T15:54:00.163Z,1.93
2018-12-21T15:56:28.313Z,3.17
2018-12-21T15:58:56.514Z,3.13
2018-12-21T16:01:24.634Z,2.57
2018-12-21T16:03:52.773Z,2.17
2018-12-21T16:06:21.058Z,2.40
2018-12-21T16:08:49.272Z,2.80
2018-12-21T16:11:17.721Z,2.60
2018-12-21T16:13:45.840Z,2.50
2018-12-21T16:16:13.895Z,2.60
2018-12-21T16:18:42.041Z,2.43
2018-12-21T16:21:10.344Z,2.50
2018-12-21T16:23:38.533Z,3.03
2018-12-21T16:26:06.685Z,2.20
2018-12-21T16:28:34.959Z,3.07
2018-12-21T16:31:03.106Z,2.70
2018-12-21T16:33:31.328Z,2.47
2018-12-21T16:35:59.461Z,3.27
2018-12-21T16:38:27.480Z,2.13
2018-12-21T16:40:55.733Z,2.07
2018-12-21T16:43:24.181Z,2.93
2018-12-21T16:45:52.773Z,2.27
2018-12-21T16:48:20.849Z,2.93
2018-12-21T16:50:49.063Z,1.80
2018-12-21T16:53:17.260Z,2.77
2018-12-21T16:55:45.577Z,2.33
2018-12-21T16:58:13.837Z,2.37
2018-12-21T17:00:42.090Z,2.13
2018-12-21T17:03:15.607Z,2.07
2018-12-21T17:05:40.379Z,1.83
2018-12-21T17:08:08.474Z,1.67
2018-12-21T17:10:36.974Z,2.20
2018-12-21T17:13:05.333Z,1.90
2018-12-21T17:15:33.833Z,2.30
2018-12-21T17:18:01.884Z,2.17
2018-12-21T17:20:30.273Z,2.33
2018-12-21T17:22:58.509Z,2.17
2018-12-21T17:25:26.877Z,2.13
2018-12-21T17:27:55.332Z,2.03
2018-12-21T17:30:23.714Z,2.10
2018-12-21T17:32:51.937Z,2.03
2018-12-21T17:35:20.485Z,1.90
2018-12-21T17:37:49.529Z,2.73
2018-12-21T17:40:17.676Z,2.20
2018-12-21T17:42:45.883Z,2.40
2018-12-21T17:45:14.459Z,2.07
2018-12-21T17:47:42.535Z,2.27
2018-12-21T17:50:10.925Z,2.13
2018-12-21T17:52:39.098Z,2.63
2018-12-21T17:55:08.534Z,2.93
2018-12-21T17:57:36.758Z,3.30
2018-12-21T18:00:15.080Z,2.70
2018-12-21T18:02:44.670Z,2.80
2018-12-21T18:05:13.080Z,3.47
2018-12-21T18:07:41.150Z,3.43
2018-12-21T18:10:10.714Z,3.33
2018-12-21T18:12:38.900Z,3.10
2018-12-21T18:15:08.993Z,3.53
2018-12-21T18:17:37.121Z,4.73
2018-12-21T18:20:08.500Z,3.40
2018-12-21T18:22:36.627Z,3.37
2018-12-21T18:25:09.996Z,4.30
2018-12-21T18:27:38.128Z,3.60
2018-12-21T18:30:11.586Z,3.27
2018-12-21T18:32:40.250Z,3.50
2018-12-21T18:35:12.481Z,3.43
2018-12-21T18:37:45.383Z,3.00
2018-12-21T18:40:13.906Z,3.13
2018-12-21T18:42:41.941Z,2.97
2018-12-21T18:45:10.178Z,3.27
2018-12-21T18:47:39.128Z,3.13
2018-12-21T18:50:07.476Z,3.23
2018-12-21T18:52:35.608Z,3.30
2018-12-21T18:55:04.541Z,4.00
2018-12-21T18:57:32.680Z,2.40
2018-12-21T19:00:00.818Z,2.93
2018-12-21T19:02:29.398Z,3.00
2018-12-21T19:04:58.695Z,2.90
2018-12-21T19:07:26.866Z,3.10
2018-12-21T19:09:54.936Z,2.63
2018-12-21T19:12:23.094Z,3.27
2018-12-21T19:14:52.027Z,2.87
2018-12-21T19:17:20.282Z,2.87
2018-12-21T19:19:48.698Z,2.57
2018-12-21T19:22:16.958Z,2.30
2018-12-21T19:24:45.031Z,2.17
2018-12-21T19:27:13.198Z,2.37
2018-12-21T19:29:41.365Z,2.20
2018-12-21T19:32:09.513Z,2.10
2018-12-21T19:34:37.618Z,2.03
2018-12-21T19:37:05.848Z,2.13
2018-12-21T19:39:33.952Z,2.20
2018-12-21T19:42:02.133Z,2.30
2018-12-21T19:44:30.300Z,2.70
2018-12-21T19:46:58.488Z,2.50
2018-12-21T19:49:26.757Z,1.97
2018-12-21T19:51:54.926Z,7.83
2018-12-21T19:54:23.691Z,2.30
2018-12-21T19:57:04.556Z,2.50
2018-12-21T19:59:33.012Z,2.20
2018-12-21T20:02:01.171Z,2.10
2018-12-21T20:04:29.321Z,2.00
2018-12-21T20:06:57.510Z,1.70
2018-12-21T20:09:25.724Z,1.90
2018-12-21T20:11:53.864Z,2.30
2018-12-21T20:14:22.109Z,2.17
2018-12-21T20:16:50.230Z,1.40
2018-12-21T20:19:18.418Z,2.10
2018-12-21T20:21:46.503Z,1.50
2018-12-21T20:24:15.022Z,1.53
2018-12-21T20:26:46.230Z,1.73
2018-12-21T20:29:14.362Z,2.03
2018-12-21T20:31:42.506Z,1.33
2018-12-21T20:34:10.732Z,1.90
2018-12-21T20:36:39.458Z,2.33
2018-12-21T20:39:16.453Z,2.97
2018-12-21T20:41:44.749Z,2.30
2018-12-21T20:44:12.875Z,2.33
2018-12-21T20:46:41.037Z,2.10
2018-12-21T20:49:09.238Z,1.80
2018-12-21T20:51:37.646Z,1.83
2018-12-21T20:54:05.870Z,2.07
2018-12-21T20:56:35.096Z,2.10
2018-12-21T20:59:08.548Z,2.53
2018-12-21T21:01:36.689Z,2.80
2018-12-21T21:04:04.830Z,2.23
2018-12-21T21:06:33.035Z,2.17
2018-12-21T21:09:01.382Z,1.93
2018-12-21T21:11:29.482Z,1.83
2018-12-21T21:13:57.554Z,1.67
2018-12-21T21:16:25.974Z,2.27
2018-12-21T21:18:54.102Z,1.63
2018-12-21T21:21:22.185Z,1.40
2018-12-21T21:23:50.382Z,1.07
2018-12-21T21:26:18.505Z,2.43
2018-12-21T21:28:46.679Z,2.10
2018-12-21T21:31:16.170Z,2.37
2018-12-21T21:33:44.374Z,2.13
2018-12-21T21:36:13.117Z,2.23
2018-12-21T21:38:41.543Z,2.17
2018-12-21T21:41:09.663Z,1.70
2018-12-21T21:43:37.748Z,2.10
2018-12-21T21:46:06.120Z,1.70
2018-12-21T21:48:34.196Z,1.93
2018-12-21T21:51:02.341Z,2.17
2018-12-21T21:53:30.743Z,2.30
2018-12-21T21:55:58.913Z,1.63
2018-12-21T21:58:27.017Z,2.07
2018-12-21T22:00:55.585Z,2.00
2018-12-21T22:03:23.818Z,1.83
2018-12-21T22:05:52.015Z,2.40
2018-12-21T22:08:20.189Z,1.53
2018-12-21T22:10:48.357Z,2.10
2018-12-21T22:13:16.509Z,2.33
2018-12-21T22:15:44.837Z,1.97
2018-12-21T22:18:13.937Z,1.80
2018-12-21T22:20:42.480Z,1.70
2018-12-21T22:23:10.646Z,2.07
2018-12-21T22:25:38.873Z,1.43
2018-12-21T22:28:07.061Z,2.10
2018-12-21T22:30:35.529Z,1.73
2018-12-21T22:33:03.714Z,1.57
2018-12-21T22:35:31.874Z,1.97
2018-12-21T22:38:00.302Z,1.83
2018-12-21T22:40:28.477Z,2.17
2018-12-21T22:42:56.643Z,1.33
2018-12-21T22:45:24.769Z,2.27
2018-12-21T22:47:52.965Z,1.80
2018-12-21T22:50:21.106Z,1.40
2018-12-21T22:52:49.231Z,1.50
2018-12-21T22:55:17.717Z,2.27
2018-12-21T22:57:46.423Z,2.03
2018-12-21T23:00:25.199Z,1.70
2018-12-21T23:02:53.517Z,2.07
2018-12-21T23:05:21.676Z,2.00
2018-12-21T23:07:50.202Z,2.00
2018-12-21T23:10:18.372Z,2.33
2018-12-21T23:12:46.517Z,1.87
2018-12-21T23:15:14.737Z,1.30
2018-12-21T23:17:42.882Z,2.27
2018-12-21T23:20:11.028Z,2.43
2018-12-21T23:22:39.222Z,2.20
2018-12-21T23:25:07.348Z,1.53
2018-12-21T23:27:35.457Z,1.77
2018-12-21T23:30:04.001Z,1.60
2018-12-21T23:32:32.133Z,1.97
2018-12-21T23:35:00.246Z,1.17
2018-12-21T23:37:28.485Z,2.30
2018-12-21T23:39:56.798Z,1.63
2018-12-21T23:42:24.911Z,1.60
2018-12-21T23:44:53.148Z,1.50
2018-12-21T23:47:21.409Z,1.13
2018-12-21T23:49:49.696Z,1.43
2018-12-21T23:52:18.386Z,1.33
2018-12-21T23:54:46.522Z,1.83
2018-12-21T23:57:14.956Z,0.80
2018-12-21T23:59:43.060Z,1.53
